createdAt,value
2018-09-21T00:02:22.016Z,3.55
2018-09-21T00:04:51.532Z,3.40
2018-09-21T00:07:22.382Z,3.67
2018-09-21T00:09:51.246Z,3.05
2018-09-21T00:12:20.233Z,4.25
2018-09-21T00:14:49.207Z,3.23
2018-09-21T00:17:18.150Z,2.90
2018-09-21T00:19:47.944Z,3.33
2018-09-21T00:22:18.081Z,3.80
2018-09-21T00:24:47.119Z,3.25
2018-09-21T00:27:16.165Z,3.55
2018-09-21T00:29:45.526Z,3.80
2018-09-21T00:32:15.560Z,3.63
2018-09-21T00:34:44.425Z,3.10
2018-09-21T00:37:14.792Z,3.50
2018-09-21T00:39:43.745Z,3.50
2018-09-21T00:42:12.650Z,3.20
2018-09-21T00:44:41.537Z,3.80
2018-09-21T00:47:11.131Z,3.55
2018-09-21T00:49:40.261Z,3.37
2018-09-21T00:52:09.091Z,3.40
2018-09-21T00:54:38.765Z,3.60
2018-09-21T00:57:08.279Z,3.65
2018-09-21T00:59:38.725Z,3.70
2018-09-21T01:02:08.177Z,4.20
2018-09-21T01:04:44.268Z,3.58
2018-09-21T01:07:14.902Z,3.80
2018-09-21T01:09:44.603Z,4.10
2018-09-21T01:12:13.507Z,3.85
2018-09-21T01:14:43.487Z,4.10
2018-09-21T01:17:12.539Z,4.13
2018-09-21T01:19:42.125Z,3.92
2018-09-21T01:22:11.740Z,3.83
2018-09-21T01:24:41.220Z,3.85
2018-09-21T01:27:14.572Z,3.98
2018-09-21T01:29:44.036Z,4.15
2018-09-21T01:32:13.620Z,3.77
2018-09-21T01:34:43.081Z,4.00
2018-09-21T01:37:13.260Z,3.95
2018-09-21T01:39:42.673Z,3.87
2018-09-21T01:42:11.601Z,3.90
2018-09-21T01:44:41.040Z,3.80
2018-09-21T01:47:10.978Z,3.92
2018-09-21T01:49:41.473Z,4.10
2018-09-21T01:52:10.554Z,4.50
2018-09-21T01:54:40.365Z,3.75
2018-09-21T01:57:10.194Z,4.00
2018-09-21T01:59:40.026Z,3.58
2018-09-21T02:02:08.890Z,3.83
2018-09-21T02:04:38.941Z,4.05
2018-09-21T02:07:09.410Z,3.75
2018-09-21T02:09:38.581Z,3.83
2018-09-21T02:12:09.052Z,3.90
2018-09-21T02:14:37.950Z,4.08
2018-09-21T02:17:07.492Z,4.27
2018-09-21T02:19:36.396Z,3.92
2018-09-21T02:22:05.444Z,4.00
2018-09-21T02:24:34.751Z,4.05
2018-09-21T02:27:04.526Z,4.25
2018-09-21T02:29:33.797Z,4.00
2018-09-21T02:32:02.776Z,4.00
2018-09-21T02:34:31.597Z,3.87
2018-09-21T02:37:00.987Z,3.97
2018-09-21T02:39:30.916Z,3.83
2018-09-21T02:42:01.358Z,4.10
2018-09-21T02:44:31.855Z,3.80
2018-09-21T02:47:01.277Z,4.10
2018-09-21T02:49:30.183Z,4.00
2018-09-21T02:52:00.439Z,3.83
2018-09-21T02:54:29.305Z,4.50
2018-09-21T02:56:59.677Z,4.17
2018-09-21T02:59:28.758Z,3.80
2018-09-21T03:01:58.315Z,4.07
2018-09-21T03:04:27.944Z,4.00
2018-09-21T03:06:58.067Z,3.95
2018-09-21T03:09:28.072Z,3.92
2018-09-21T03:11:57.068Z,3.97
2018-09-21T03:14:26.198Z,3.92
2018-09-21T03:16:56.413Z,3.77
2018-09-21T03:19:27.055Z,3.87
2018-09-21T03:21:56.452Z,3.67
2018-09-21T03:24:26.409Z,3.50
2018-09-21T03:26:55.370Z,4.20
2018-09-21T03:29:24.858Z,4.08
2018-09-21T03:31:53.821Z,4.05
2018-09-21T03:34:23.466Z,4.03
2018-09-21T03:36:52.795Z,3.95
2018-09-21T03:39:23.166Z,4.00
2018-09-21T03:41:52.852Z,3.90
2018-09-21T03:44:21.825Z,3.92
2018-09-21T03:46:51.502Z,3.70
2018-09-21T03:49:21.159Z,4.00
2018-09-21T03:51:50.970Z,4.10
2018-09-21T03:54:20.284Z,3.93
2018-09-21T03:56:50.045Z,3.72
2018-09-21T03:59:19.473Z,3.62
2018-09-21T04:01:49.116Z,3.70
2018-09-21T04:04:19.634Z,3.70
2018-09-21T04:06:49.133Z,4.13
2018-09-21T04:09:18.264Z,4.05
2018-09-21T04:11:47.151Z,4.30
2018-09-21T04:14:16.138Z,3.92
2018-09-21T04:16:46.252Z,3.27
2018-09-21T04:19:15.161Z,3.73
2018-09-21T04:21:44.110Z,3.87
2018-09-21T04:24:13.637Z,3.70
2018-09-21T04:26:42.501Z,3.40
2018-09-21T04:29:12.146Z,3.27
2018-09-21T04:31:41.412Z,3.60
2018-09-21T04:34:11.851Z,3.10
2018-09-21T04:36:41.333Z,3.17
2018-09-21T04:39:11.727Z,3.60
2018-09-21T04:41:41.787Z,3.13
2018-09-21T04:44:10.546Z,3.23
2018-09-21T04:46:40.304Z,3.77
2018-09-21T04:49:09.321Z,3.50
2018-09-21T04:51:38.084Z,3.13
2018-09-21T04:54:07.916Z,3.73
2018-09-21T04:56:36.832Z,3.50
2018-09-21T04:59:05.758Z,3.93
2018-09-21T05:01:34.660Z,3.53
2018-09-21T05:04:04.132Z,3.20
2018-09-21T05:06:34.280Z,3.80
2018-09-21T05:09:03.392Z,3.77
2018-09-21T05:11:33.415Z,4.30
2018-09-21T05:14:03.375Z,4.12
2018-09-21T05:16:32.292Z,4.57
2018-09-21T05:19:02.067Z,4.30
2018-09-21T05:21:31.088Z,4.47
2018-09-21T05:24:01.023Z,4.85
2018-09-21T05:26:30.103Z,3.97
2018-09-21T05:28:59.840Z,3.97
2018-09-21T05:31:28.785Z,4.50
2018-09-21T05:33:58.469Z,4.97
2018-09-21T05:36:27.880Z,4.07
2018-09-21T05:38:57.447Z,4.17
2018-09-21T05:41:27.007Z,3.87
2018-09-21T05:43:56.631Z,4.00
2018-09-21T05:46:25.660Z,4.00
2018-09-21T05:48:54.664Z,4.43
2018-09-21T05:51:24.188Z,4.40
2018-09-21T05:53:53.111Z,4.07
2018-09-21T05:56:23.519Z,4.03
2018-09-21T05:58:52.341Z,3.80
2018-09-21T06:01:21.126Z,4.53
2018-09-21T06:03:51.052Z,4.03
2018-09-21T06:06:20.088Z,4.10
2018-09-21T06:08:49.172Z,4.27
2018-09-21T06:11:18.118Z,4.27
2018-09-21T06:13:47.074Z,4.70
2018-09-21T06:16:16.153Z,4.17
2018-09-21T06:18:45.164Z,4.43
2018-09-21T06:21:14.668Z,4.30
2018-09-21T06:23:43.713Z,4.33
2018-09-21T06:26:13.439Z,5.17
2018-09-21T06:28:42.505Z,4.70
2018-09-21T06:31:12.629Z,4.20
2018-09-21T06:33:41.729Z,5.13
2018-09-21T06:36:10.641Z,4.17
2018-09-21T06:38:39.481Z,4.07
2018-09-21T06:41:08.526Z,4.10
2018-09-21T06:43:38.030Z,4.10
2018-09-21T06:46:06.997Z,3.47
2018-09-21T06:48:36.643Z,3.60
2018-09-21T06:51:07.156Z,3.97
2018-09-21T06:53:36.665Z,3.20
2018-09-21T06:56:05.724Z,3.30
2018-09-21T06:58:35.648Z,3.70
2018-09-21T07:01:06.701Z,3.10
2018-09-21T07:03:36.770Z,3.37
2018-09-21T07:06:05.786Z,3.07
2018-09-21T07:08:35.717Z,3.00
2018-09-21T07:11:04.599Z,3.23
2018-09-21T07:13:33.625Z,2.90
2018-09-21T07:16:03.167Z,3.50
2018-09-21T07:18:32.386Z,2.93
2018-09-21T07:21:01.644Z,2.60
2018-09-21T07:23:31.319Z,2.40
2018-09-21T07:26:00.328Z,3.77
2018-09-21T07:28:30.349Z,3.30
2018-09-21T07:30:59.441Z,2.85
2018-09-21T07:33:28.460Z,3.60
2018-09-21T07:35:57.962Z,2.47
2018-09-21T07:38:26.936Z,2.80
2018-09-21T07:40:55.872Z,2.63
2018-09-21T07:43:25.255Z,2.87
2018-09-21T07:45:54.476Z,2.40
2018-09-21T07:48:23.334Z,2.30
2018-09-21T07:50:52.964Z,2.40
2018-09-21T07:53:21.907Z,2.50
2018-09-21T07:55:51.031Z,2.40
2018-09-21T07:58:19.848Z,2.70
2018-09-21T08:00:49.432Z,2.40
2018-09-21T08:03:18.462Z,2.43
2018-09-21T08:05:48.376Z,2.22
2018-09-21T08:08:17.446Z,2.60
2018-09-21T08:10:47.051Z,2.50
2018-09-21T08:13:16.763Z,2.45
2018-09-21T08:15:46.604Z,2.62
2018-09-21T08:18:16.010Z,2.45
2018-09-21T08:20:45.016Z,2.53
2018-09-21T08:23:14.235Z,2.47
2018-09-21T08:25:43.381Z,2.45
2018-09-21T08:28:13.143Z,2.75
2018-09-21T08:30:42.046Z,2.33
2018-09-21T08:33:11.070Z,2.65
2018-09-21T08:35:40.019Z,2.40
2018-09-21T08:38:09.589Z,2.57
2018-09-21T08:40:38.371Z,2.27
2018-09-21T08:43:07.250Z,2.47
2018-09-21T08:45:36.457Z,2.83
2018-09-21T08:48:05.625Z,2.13
2018-09-21T08:50:34.794Z,3.07
2018-09-21T08:53:04.511Z,2.53
2018-09-21T08:55:33.716Z,2.47
2018-09-21T08:58:02.655Z,2.60
2018-09-21T09:00:31.700Z,3.03
2018-09-21T09:03:00.787Z,1.50
2018-09-21T09:05:29.927Z,1.67
2018-09-21T09:07:59.322Z,1.43
2018-09-21T09:10:28.426Z,1.40
2018-09-21T09:12:57.425Z,1.30
2018-09-21T09:15:26.425Z,1.20
2018-09-21T09:17:55.595Z,1.53
2018-09-21T09:20:27.551Z,1.27
2018-09-21T09:22:56.497Z,1.07
2018-09-21T09:25:25.395Z,1.27
2018-09-21T09:27:54.404Z,1.27
2018-09-21T09:30:23.367Z,1.57
2018-09-21T09:32:53.407Z,2.03
2018-09-21T09:35:22.729Z,1.50
2018-09-21T09:37:51.894Z,1.60
2018-09-21T09:40:21.020Z,1.33
2018-09-21T09:42:50.200Z,0.90
2018-09-21T09:45:19.214Z,1.67
2018-09-21T09:47:49.224Z,1.30
2018-09-21T09:50:19.068Z,1.40
2018-09-21T09:52:48.208Z,1.43
2018-09-21T09:55:17.206Z,1.10
2018-09-21T09:57:46.203Z,1.60
2018-09-21T10:00:18.342Z,1.53
2018-09-21T10:02:48.126Z,1.40
2018-09-21T10:05:17.187Z,1.57
2018-09-21T10:07:46.125Z,1.90
2018-09-21T10:10:15.186Z,1.97
2018-09-21T10:12:44.359Z,1.70
2018-09-21T10:15:13.450Z,1.73
2018-09-21T10:17:42.500Z,1.73
2018-09-21T10:20:11.546Z,1.63
2018-09-21T10:22:41.054Z,1.53
2018-09-21T10:25:10.184Z,1.70
2018-09-21T10:27:39.194Z,1.57
2018-09-21T10:30:08.070Z,1.67
2018-09-21T10:32:37.618Z,2.17
2018-09-21T10:35:06.705Z,1.70
2018-09-21T10:37:36.211Z,2.00
2018-09-21T10:40:05.466Z,2.23
2018-09-21T10:42:34.668Z,1.63
2018-09-21T10:45:03.740Z,2.43
2018-09-21T10:47:34.026Z,2.20
2018-09-21T10:50:04.706Z,1.90
2018-09-21T10:52:33.830Z,2.20
2018-09-21T10:55:02.780Z,2.80
2018-09-21T10:57:32.488Z,2.50
2018-09-21T11:00:01.615Z,2.00
2018-09-21T11:02:30.694Z,2.30
2018-09-21T11:04:59.679Z,2.20
2018-09-21T11:07:29.287Z,2.30
2018-09-21T11:09:58.394Z,2.10
2018-09-21T11:12:27.972Z,2.10
2018-09-21T11:14:57.127Z,2.13
2018-09-21T11:17:26.188Z,2.73
2018-09-21T11:19:55.449Z,2.13
2018-09-21T11:22:25.220Z,2.80
2018-09-21T11:24:54.278Z,2.53
2018-09-21T11:27:23.324Z,2.60
2018-09-21T11:29:52.420Z,2.17
2018-09-21T11:32:21.443Z,3.87
2018-09-21T11:34:50.357Z,3.47
2018-09-21T11:37:19.772Z,3.47
2018-09-21T11:39:49.720Z,2.87
2018-09-21T11:42:18.551Z,2.37
2018-09-21T11:44:48.784Z,3.30
2018-09-21T11:47:18.460Z,3.07
2018-09-21T11:49:48.313Z,3.53
2018-09-21T11:52:17.205Z,2.47
2018-09-21T11:54:47.114Z,3.13
2018-09-21T11:57:16.383Z,3.47
2018-09-21T11:59:46.622Z,2.60
2018-09-21T12:02:15.726Z,3.50
2018-09-21T12:04:44.967Z,3.10
2018-09-21T12:07:14.043Z,3.13
2018-09-21T12:09:43.094Z,2.57
2018-09-21T12:12:12.050Z,2.80
2018-09-21T12:14:41.017Z,2.30
2018-09-21T12:17:10.232Z,1.87
2018-09-21T12:19:39.182Z,1.67
2018-09-21T12:22:08.401Z,2.53
2018-09-21T12:24:37.395Z,1.20
2018-09-21T12:27:06.567Z,0.90
2018-09-21T12:29:35.492Z,1.00
2018-09-21T12:32:05.051Z,1.13
2018-09-21T12:34:34.131Z,1.10
2018-09-21T12:37:03.329Z,1.13
2018-09-21T12:39:32.314Z,1.13
2018-09-21T12:42:01.283Z,0.97
2018-09-21T12:44:30.370Z,0.87
2018-09-21T12:47:00.247Z,1.20
2018-09-21T12:49:29.408Z,1.20
2018-09-21T12:52:02.451Z,0.97
2018-09-21T12:54:31.481Z,1.13
2018-09-21T12:57:00.510Z,1.13
2018-09-21T12:59:29.621Z,1.00
2018-09-21T13:01:58.616Z,0.97
2018-09-21T13:04:28.594Z,0.80
2018-09-21T13:06:57.698Z,1.10
2018-09-21T13:09:26.836Z,0.83
2018-09-21T13:11:55.958Z,0.70
2018-09-21T13:14:25.046Z,0.90
2018-09-21T13:16:54.164Z,1.20
2018-09-21T13:19:23.121Z,0.70
2018-09-21T13:21:52.347Z,1.10
2018-09-21T13:24:21.364Z,1.27
2018-09-21T13:26:51.428Z,0.60
2018-09-21T13:29:20.326Z,1.10
2018-09-21T13:31:49.886Z,0.50
2018-09-21T13:34:19.066Z,0.60
2018-09-21T13:36:48.228Z,0.70
2018-09-21T13:39:17.271Z,0.50
2018-09-21T13:41:46.327Z,0.50
2018-09-21T13:44:15.467Z,0.40
2018-09-21T13:46:44.943Z,0.97
2018-09-21T13:49:14.615Z,0.80
2018-09-21T13:51:43.794Z,0.60
2018-09-21T13:54:12.835Z,0.57
2018-09-21T13:56:41.832Z,0.57
2018-09-21T13:59:11.642Z,0.50
2018-09-21T14:01:40.747Z,0.40
2018-09-21T14:04:09.813Z,0.93
2018-09-21T14:06:38.981Z,0.53
2018-09-21T14:09:08.857Z,0.87
2018-09-21T14:11:37.960Z,0.57
2018-09-21T14:14:07.147Z,0.57
2018-09-21T14:16:36.180Z,0.77
2018-09-21T14:19:06.206Z,0.50
2018-09-21T14:21:35.836Z,0.60
2018-09-21T14:24:05.378Z,0.67
2018-09-21T14:26:35.249Z,0.80
2018-09-21T14:29:05.317Z,0.70
2018-09-21T14:31:34.366Z,0.33
2018-09-21T14:34:03.483Z,1.60
2018-09-21T14:36:32.439Z,0.73
2018-09-21T14:39:01.479Z,0.80
2018-09-21T14:41:30.641Z,0.60
2018-09-21T14:43:59.587Z,0.50
2018-09-21T14:46:28.605Z,1.20
2018-09-21T14:48:57.851Z,0.60
2018-09-21T14:51:26.844Z,0.47
2018-09-21T14:53:56.409Z,0.50
2018-09-21T14:56:25.656Z,0.60
2018-09-21T14:58:54.746Z,0.50
2018-09-21T15:01:24.582Z,0.60
2018-09-21T15:03:53.589Z,0.50
2018-09-21T15:06:22.838Z,0.40
2018-09-21T15:08:52.495Z,0.73
2018-09-21T15:11:21.728Z,0.43
2018-09-21T15:13:50.967Z,0.30
2018-09-21T15:16:20.228Z,0.60
2018-09-21T15:18:49.888Z,0.60
2018-09-21T15:21:19.081Z,0.70
2018-09-21T15:23:48.092Z,0.50
2018-09-21T15:26:17.244Z,0.50
2018-09-21T15:28:47.645Z,0.40
2018-09-21T15:31:20.406Z,0.70
2018-09-21T15:33:50.553Z,0.57
2018-09-21T15:36:19.602Z,0.80
2018-09-21T15:38:48.528Z,0.57
2018-09-21T15:41:17.762Z,0.87
2018-09-21T15:43:48.160Z,0.63
2018-09-21T15:46:17.296Z,0.47
2018-09-21T15:48:46.335Z,0.80
2018-09-21T15:51:16.105Z,0.37
2018-09-21T15:53:44.938Z,1.00
2018-09-21T15:56:14.072Z,0.70
2018-09-21T15:58:43.355Z,0.60
2018-09-21T16:01:12.576Z,0.73
2018-09-21T16:03:41.656Z,0.70
2018-09-21T16:06:10.842Z,0.40
2018-09-21T16:08:40.337Z,0.50
2018-09-21T16:11:10.828Z,0.50
2018-09-21T16:13:39.925Z,1.40
2018-09-21T16:16:09.400Z,0.73
2018-09-21T16:18:38.425Z,0.78
2018-09-21T16:21:07.618Z,0.88
2018-09-21T16:23:36.660Z,0.60
2018-09-21T16:26:06.537Z,0.70
2018-09-21T16:28:35.525Z,0.50
2018-09-21T16:31:04.663Z,0.80
2018-09-21T16:33:33.904Z,0.70
2018-09-21T16:36:04.170Z,0.70
2018-09-21T16:38:33.205Z,1.03
2018-09-21T16:41:02.412Z,0.88
2018-09-21T16:43:31.475Z,0.65
2018-09-21T16:46:00.933Z,0.90
2018-09-21T16:48:29.722Z,0.85
2018-09-21T16:50:58.591Z,0.70
2018-09-21T16:53:27.432Z,0.60
2018-09-21T16:55:56.299Z,0.60
2018-09-21T16:58:25.229Z,0.50
2018-09-21T17:00:54.827Z,0.67
2018-09-21T17:03:23.798Z,0.70
2018-09-21T17:05:52.656Z,0.90
2018-09-21T17:08:22.318Z,0.90
2018-09-21T17:10:52.252Z,0.93
2018-09-21T17:13:21.482Z,0.77
2018-09-21T17:15:50.587Z,1.10
2018-09-21T17:18:19.571Z,0.90
2018-09-21T17:20:48.995Z,0.90
2018-09-21T17:23:18.722Z,1.10
2018-09-21T17:25:48.398Z,1.00
2018-09-21T17:28:17.603Z,0.68
2018-09-21T17:30:48.240Z,0.67
2018-09-21T17:33:18.843Z,0.85
2018-09-21T17:35:50.101Z,0.90
2018-09-21T17:38:19.798Z,0.85
2018-09-21T17:40:48.910Z,0.97
2018-09-21T17:43:18.517Z,0.87
2018-09-21T17:45:47.412Z,0.90
2018-09-21T17:48:16.606Z,1.20
2018-09-21T17:50:45.832Z,1.23
2018-09-21T17:53:15.803Z,1.12
2018-09-21T17:55:45.407Z,1.20
2018-09-21T17:58:17.619Z,1.17
2018-09-21T18:00:46.890Z,1.00
2018-09-21T18:03:17.631Z,1.27
2018-09-21T18:05:46.418Z,1.30
2018-09-21T18:08:15.340Z,1.22
2018-09-21T18:10:44.653Z,1.30
2018-09-21T18:13:14.196Z,1.00
2018-09-21T18:15:43.176Z,1.12
2018-09-21T18:18:13.805Z,1.15
2018-09-21T18:20:43.536Z,1.07
2018-09-21T18:23:12.488Z,1.00
2018-09-21T18:25:41.493Z,1.33
2018-09-21T18:28:10.418Z,1.30
2018-09-21T18:30:39.502Z,1.30
2018-09-21T18:33:09.333Z,1.80
2018-09-21T18:35:38.329Z,1.12
2018-09-21T18:38:07.340Z,0.90
2018-09-21T18:40:37.041Z,0.77
2018-09-21T18:43:06.853Z,0.70
2018-09-21T18:45:36.968Z,0.80
2018-09-21T18:48:05.963Z,0.60
2018-09-21T18:50:36.497Z,1.00
2018-09-21T18:53:05.565Z,0.70
2018-09-21T18:55:34.685Z,0.80
2018-09-21T18:58:04.298Z,0.83
2018-09-21T19:00:33.288Z,0.87
2018-09-21T19:03:02.413Z,0.93
2018-09-21T19:05:31.565Z,0.83
2018-09-21T19:08:01.233Z,0.40
2018-09-21T19:10:30.108Z,0.57
2018-09-21T19:12:59.311Z,0.73
2018-09-21T19:15:28.428Z,0.60
2018-09-21T19:17:57.417Z,0.83
2018-09-21T19:20:26.516Z,0.60
2018-09-21T19:22:55.722Z,0.83
2018-09-21T19:25:25.352Z,0.70
2018-09-21T19:27:54.813Z,0.70
2018-09-21T19:30:24.160Z,0.73
2018-09-21T19:32:53.706Z,0.53
2018-09-21T19:35:22.848Z,1.00
2018-09-21T19:37:52.164Z,0.73
2018-09-21T19:40:21.334Z,0.70
2018-09-21T19:42:50.571Z,0.73
2018-09-21T19:45:19.825Z,0.70
2018-09-21T19:47:48.979Z,1.03
2018-09-21T19:50:18.049Z,0.80
2018-09-21T19:52:47.161Z,1.03
2018-09-21T19:55:16.049Z,1.00
2018-09-21T19:57:45.060Z,0.87
2018-09-21T20:00:14.415Z,0.70
2018-09-21T20:02:43.416Z,0.67
2018-09-21T20:05:12.945Z,1.07
2018-09-21T20:07:41.871Z,1.20
2018-09-21T20:10:10.959Z,1.00
2018-09-21T20:12:40.101Z,0.57
2018-09-21T20:15:09.680Z,0.90
2018-09-21T20:17:38.769Z,0.80
2018-09-21T20:20:07.977Z,0.77
2018-09-21T20:22:37.252Z,0.90
2018-09-21T20:25:06.418Z,2.17
2018-09-21T20:27:35.373Z,1.03
2018-09-21T20:30:13.473Z,1.43
2018-09-21T20:32:47.762Z,0.80
2018-09-21T20:35:16.832Z,1.27
2018-09-21T20:37:45.742Z,1.30
2018-09-21T20:40:15.347Z,0.83
2018-09-21T20:42:45.089Z,0.80
2018-09-21T20:45:14.079Z,1.30
2018-09-21T20:47:43.060Z,0.77
2018-09-21T20:50:12.045Z,1.23
2018-09-21T20:52:41.163Z,1.50
2018-09-21T20:55:10.354Z,0.83
2018-09-21T20:57:39.901Z,1.50
2018-09-21T21:00:08.720Z,0.87
2018-09-21T21:02:37.968Z,1.40
2018-09-21T21:05:09.449Z,1.30
2018-09-21T21:07:38.776Z,1.80
2018-09-21T21:10:08.447Z,1.60
2018-09-21T21:12:38.125Z,1.30
2018-09-21T21:15:07.342Z,1.20
2018-09-21T21:17:36.573Z,1.37
2018-09-21T21:20:06.011Z,1.47
2018-09-21T21:22:34.920Z,1.30
2018-09-21T21:25:04.409Z,1.50
2018-09-21T21:27:33.380Z,1.60
2018-09-21T21:30:02.359Z,2.00
2018-09-21T21:32:33.175Z,1.60
2018-09-21T21:35:02.689Z,1.70
2018-09-21T21:37:31.511Z,1.57
2018-09-21T21:40:01.127Z,2.07
2018-09-21T21:42:30.296Z,2.00
2018-09-21T21:44:59.634Z,2.20
2018-09-21T21:47:28.675Z,2.03
2018-09-21T21:49:57.599Z,1.60
2018-09-21T21:52:26.648Z,2.23
2018-09-21T21:55:02.961Z,1.93
2018-09-21T21:57:31.884Z,1.70
2018-09-21T22:00:00.892Z,1.57
2018-09-21T22:02:35.541Z,1.60
2018-09-21T22:05:04.870Z,1.90
2018-09-21T22:07:35.150Z,2.00
2018-09-21T22:10:05.761Z,1.87
2018-09-21T22:12:40.707Z,1.97
2018-09-21T22:15:15.621Z,1.77
2018-09-21T22:17:44.624Z,1.60
2018-09-21T22:20:14.200Z,1.30
2018-09-21T22:22:44.837Z,1.13
2018-09-21T22:25:13.676Z,1.30
2018-09-21T22:27:44.998Z,1.23
2018-09-21T22:30:14.596Z,0.80
2018-09-21T22:32:44.243Z,1.13
2018-09-21T22:35:15.065Z,2.30
2018-09-21T22:37:44.358Z,1.50
2018-09-21T22:40:13.426Z,2.03
2018-09-21T22:42:42.342Z,1.57
2018-09-21T22:45:11.163Z,1.53
2018-09-21T22:47:40.567Z,2.30
2018-09-21T22:50:09.339Z,3.40
2018-09-21T22:52:38.326Z,2.00
2018-09-21T22:55:08.276Z,1.57
2018-09-21T22:57:37.845Z,1.47
2018-09-21T23:00:07.315Z,3.10
2018-09-21T23:02:37.086Z,2.23
2018-09-21T23:05:08.259Z,1.80
2018-09-21T23:07:38.910Z,3.33
2018-09-21T23:10:08.425Z,2.47
2018-09-21T23:12:38.711Z,1.80
2018-09-21T23:15:07.759Z,2.03
2018-09-21T23:17:38.439Z,1.87
2018-09-21T23:20:07.642Z,2.17
2018-09-21T23:22:38.898Z,2.60
2018-09-21T23:25:08.531Z,2.43
2018-09-21T23:27:38.294Z,1.93
2018-09-21T23:30:07.849Z,2.10
2018-09-21T23:32:36.848Z,2.03
2018-09-21T23:35:06.401Z,1.40
2018-09-21T23:37:39.011Z,2.30
2018-09-21T23:40:08.201Z,1.80
2018-09-21T23:42:37.639Z,1.87
2018-09-21T23:45:07.548Z,2.37
2018-09-21T23:47:36.662Z,1.60
2018-09-21T23:50:07.051Z,1.17
2018-09-21T23:52:39.541Z,1.20
2018-09-21T23:55:08.543Z,2.20
2018-09-21T23:57:37.573Z,1.40
